Time;durP1;ratioP1;P1;durP2;ratioP2;P2;SDS_P1;SDS_P2;PMS_P1;PMS_P2;Temp;Humidity;BMP_temperature;BMP_pressure;BME280_temperature;BME280_humidity;BME280_pressure;Samples;Min_cycle;Max_cycle;Signal;HPM_P1;HPM_P2
2021/11/29 00:00:40;;;;;;;5.85;1.63;;;0.80;99.90;;;;;;5145511;27;20055;-61
2021/11/29 00:03:08;;;;;;;7.13;1.25;;;0.90;99.90;;;;;;5129406;27;20174;-61
2021/11/29 00:05:34;;;;;;;5.95;1.90;;;1.00;99.90;;;;;;5147469;27;20043;-61
2021/11/29 00:08:02;;;;;;;7.82;1.25;;;1.00;99.90;;;;;;5122290;27;20065;-61
2021/11/29 00:10:28;;;;;;;5.95;1.40;;;1.10;99.90;;;;;;5141264;27;20047;-61
2021/11/29 00:12:55;;;;;;;5.38;1.10;;;1.20;99.90;;;;;;5144420;27;20161;-61
2021/11/29 00:15:21;;;;;;;6.65;1.30;;;1.20;99.90;;;;;;5126656;28;20048;-61
2021/11/29 00:17:48;;;;;;;8.52;1.50;;;1.20;99.90;;;;;;5123846;27;20140;-61
2021/11/29 00:20:14;;;;;;;4.93;1.40;;;1.30;99.90;;;;;;5124131;28;20075;-61
2021/11/29 00:22:40;;;;;;;6.65;1.60;;;1.20;99.90;;;;;;5115680;27;20043;-61
2021/11/29 00:25:09;;;;;;;6.88;2.60;;;1.20;99.90;;;;;;5146814;27;20047;-61
2021/11/29 00:27:37;;;;;;;6.18;1.92;;;1.20;99.90;;;;;;5124785;27;20059;-61
2021/11/29 00:30:06;;;;;;;5.47;1.35;;;1.10;99.90;;;;;;5124985;28;20052;-61
2021/11/29 00:32:32;;;;;;;6.82;1.42;;;1.20;99.90;;;;;;5144345;27;20083;-61
2021/11/29 00:34:57;;;;;;;7.15;1.27;;;1.20;99.90;;;;;;5121375;27;20047;-61
2021/11/29 00:37:24;;;;;;;2.60;1.13;;;1.20;99.90;;;;;;5146225;27;20650;-61
2021/11/29 00:39:51;;;;;;;12.23;1.92;;;1.20;99.90;;;;;;5144223;27;20047;-61
2021/11/29 00:42:17;;;;;;;3.53;1.25;;;1.30;99.90;;;;;;5146852;27;20047;-61
2021/11/29 00:44:43;;;;;;;5.68;1.40;;;1.30;99.90;;;;;;5120594;28;20063;-61
2021/11/29 00:47:09;;;;;;;4.30;1.40;;;1.30;99.90;;;;;;5143091;27;20046;-61
2021/11/29 00:49:34;;;;;;;3.15;1.30;;;1.40;99.90;;;;;;5121412;27;20063;-61
2021/11/29 00:52:00;;;;;;;4.32;1.23;;;1.30;99.90;;;;;;5125024;27;20483;-61
2021/11/29 00:54:26;;;;;;;5.57;1.67;;;1.30;99.90;;;;;;5128569;27;20134;-61
2021/11/29 00:56:52;;;;;;;6.15;1.42;;;1.30;99.90;;;;;;5146219;27;20039;-61
2021/11/29 00:59:17;;;;;;;6.53;1.55;;;1.40;99.90;;;;;;5142343;27;20071;-61
2021/11/29 01:01:44;;;;;;;5.60;1.60;;;1.40;99.90;;;;;;5146415;27;20031;-61
2021/11/29 01:04:10;;;;;;;7.57;2.63;;;1.40;99.90;;;;;;5132866;27;20122;-61
2021/11/29 01:06:36;;;;;;;4.13;1.83;;;1.40;99.90;;;;;;5121592;27;20046;-61
2021/11/29 01:09:03;;;;;;;6.75;1.40;;;1.40;99.90;;;;;;5144125;27;20507;-61
2021/11/29 01:11:29;;;;;;;2.78;1.20;;;1.50;99.90;;;;;;5111715;27;20103;-61
2021/11/29 01:13:54;;;;;;;6.47;1.60;;;1.60;99.90;;;;;;5147272;27;20050;-61
2021/11/29 01:16:21;;;;;;;4.55;1.10;;;1.60;99.90;;;;;;5147084;27;20043;-61
2021/11/29 01:18:46;;;;;;;5.47;1.30;;;1.60;99.90;;;;;;5146629;27;20039;-61
2021/11/29 01:21:13;;;;;;;6.40;1.50;;;1.60;99.90;;;;;;5146865;27;20050;-61
2021/11/29 01:23:39;;;;;;;4.00;1.50;;;1.70;99.90;;;;;;5147223;27;20054;-61
2021/11/29 01:26:04;;;;;;;16.92;2.65;;;1.70;99.90;;;;;;5140363;27;20027;-61
2021/11/29 01:28:30;;;;;;;4.80;1.30;;;1.70;99.90;;;;;;5147342;27;20495;-61
2021/11/29 01:30:56;;;;;;;6.78;1.45;;;1.60;99.90;;;;;;5147175;27;20384;-61
2021/11/29 01:33:22;;;;;;;7.00;2.58;;;1.60;99.90;;;;;;5123374;28;20127;-61
2021/11/29 01:35:47;;;;;;;9.52;1.52;;;1.60;99.90;;;;;;5140059;27;20082;-61
2021/11/29 01:38:13;;;;;;;7.00;1.30;;;1.60;99.90;;;;;;5120937;27;20039;-61
2021/11/29 01:40:39;;;;;;;4.82;1.33;;;1.60;99.90;;;;;;5110816;28;20043;-61
2021/11/29 01:43:11;;;;;;;3.30;1.30;;;1.60;99.90;;;;;;5123120;28;20039;-61
2021/11/29 01:45:46;;;;;;;4.40;1.50;;;1.50;99.90;;;;;;5143100;27;20047;-61
2021/11/29 01:48:12;;;;;;;3.00;1.58;;;1.50;99.90;;;;;;5145277;27;20053;-61
2021/11/29 01:50:40;;;;;;;6.78;1.40;;;1.50;99.90;;;;;;5145273;27;20510;-61
2021/11/29 01:53:07;;;;;;;4.28;1.40;;;1.60;99.90;;;;;;5137087;27;20046;-61
2021/11/29 01:55:35;;;;;;;4.97;1.40;;;1.60;99.90;;;;;;5142558;27;20083;-61
2021/11/29 01:58:01;;;;;;;6.20;1.40;;;1.80;99.90;;;;;;5116353;27;20047;-61
2021/11/29 02:00:29;;;;;;;5.85;1.50;;;1.80;99.90;;;;;;5146209;27;20443;-61
2021/11/29 02:02:55;;;;;;;9.45;1.20;;;1.80;99.90;;;;;;5119371;28;20051;-61
2021/11/29 02:05:22;;;;;;;4.60;1.30;;;1.70;99.90;;;;;;5121603;27;20503;-61
2021/11/29 02:07:48;;;;;;;6.90;1.13;;;1.70;99.90;;;;;;5126361;27;20043;-61
2021/11/29 02:10:16;;;;;;;3.80;1.10;;;1.70;99.90;;;;;;5119812;27;20043;-61
2021/11/29 02:12:42;;;;;;;7.03;1.20;;;1.70;99.90;;;;;;5121962;28;20079;-61
2021/11/29 02:15:11;;;;;;;6.30;1.38;;;1.70;99.90;;;;;;5117095;28;20104;-61
2021/11/29 02:17:37;;;;;;;5.82;1.20;;;1.60;99.90;;;;;;5137934;27;20090;-61
2021/11/29 02:20:04;;;;;;;5.70;1.30;;;1.70;99.90;;;;;;5144730;27;20043;-61
2021/11/29 02:22:30;;;;;;;5.60;1.17;;;1.80;99.90;;;;;;5145331;27;20051;-61
2021/11/29 02:24:57;;;;;;;7.38;1.35;;;1.80;99.90;;;;;;5145496;27;20060;-61
2021/11/29 02:27:22;;;;;;;6.35;1.27;;;1.80;99.90;;;;;;5121114;28;20055;-61
2021/11/29 02:29:52;;;;;;;5.82;1.33;;;1.70;99.90;;;;;;5121666;27;20075;-61
2021/11/29 02:32:18;;;;;;;1.58;1.10;;;1.80;99.90;;;;;;5126058;28;20551;-61
2021/11/29 02:34:44;;;;;;;2.20;0.88;;;2.10;99.90;;;;;;5125196;27;20047;-61
2021/11/29 02:37:10;;;;;;;2.08;0.80;;;2.00;99.90;;;;;;5145196;27;20064;-61
2021/11/29 02:39:36;;;;;;;3.63;1.00;;;2.00;99.90;;;;;;5144248;27;20042;-61
2021/11/29 02:42:06;;;;;;;2.17;0.80;;;1.90;99.90;;;;;;5144587;27;20039;-61
2021/11/29 02:44:32;;;;;;;4.10;0.88;;;1.80;99.90;;;;;;5119453;28;20098;-61
2021/11/29 02:46:58;;;;;;;5.63;0.77;;;1.90;99.90;;;;;;5145107;27;20088;-61
2021/11/29 02:49:24;;;;;;;2.47;0.70;;;1.80;99.90;;;;;;5126936;28;20062;-61
2021/11/29 02:51:56;;;;;;;0.93;0.50;;;1.80;99.90;;;;;;5146205;28;20043;-61
2021/11/29 02:54:29;;;;;;;2.08;0.70;;;1.80;99.90;;;;;;5144938;28;20052;-61
2021/11/29 02:57:01;;;;;;;2.15;0.68;;;1.80;99.90;;;;;;5144393;28;20039;-61
2021/11/29 02:59:29;;;;;;;3.70;0.85;;;1.80;99.90;;;;;;5143689;27;20107;-61
2021/11/29 03:02:03;;;;;;;2.55;0.80;;;1.80;99.90;;;;;;5144514;28;20057;-61
2021/11/29 03:04:31;;;;;;;3.35;1.00;;;1.90;99.90;;;;;;5144114;28;20562;-61
2021/11/29 03:06:58;;;;;;;3.65;0.80;;;2.00;99.90;;;;;;5145401;28;20462;-61
2021/11/29 03:09:25;;;;;;;2.75;0.80;;;1.90;99.90;;;;;;5144088;28;20039;-61
2021/11/29 03:11:51;;;;;;;2.00;0.68;;;2.00;99.90;;;;;;5117068;28;20090;-61
2021/11/29 03:14:18;;;;;;;3.33;0.70;;;2.00;99.90;;;;;;5122220;28;20058;-61
2021/11/29 03:16:45;;;;;;;2.53;0.68;;;2.10;99.90;;;;;;5141912;28;20043;-61
2021/11/29 03:19:12;;;;;;;3.47;1.00;;;2.10;99.90;;;;;;5144703;28;20117;-61
2021/11/29 03:21:38;;;;;;;1.70;0.80;;;2.10;99.90;;;;;;5127238;28;20085;-61
2021/11/29 03:24:06;;;;;;;2.03;0.90;;;2.10;99.90;;;;;;5126317;28;20051;-61
2021/11/29 03:26:33;;;;;;;4.20;0.95;;;2.10;99.90;;;;;;5109731;28;20056;-61
2021/11/29 03:29:08;;;;;;;3.50;0.98;;;2.10;99.90;;;;;;5142875;28;20049;-61
2021/11/29 03:31:35;;;;;;;2.60;0.82;;;2.10;99.90;;;;;;5144613;28;20077;-61
2021/11/29 03:34:04;;;;;;;4.72;0.88;;;2.10;99.90;;;;;;5117693;28;20453;-61
2021/11/29 03:36:33;;;;;;;5.82;1.02;;;2.10;99.90;;;;;;5138988;28;20047;-61
2021/11/29 03:38:59;;;;;;;4.20;1.02;;;2.10;99.90;;;;;;5140270;28;20044;-61
2021/11/29 03:41:26;;;;;;;4.22;0.95;;;2.10;99.90;;;;;;5144168;28;20078;-61
2021/11/29 03:43:52;;;;;;;5.57;1.40;;;2.00;99.90;;;;;;5112486;28;20051;-61
2021/11/29 03:46:18;;;;;;;2.38;0.90;;;2.00;99.90;;;;;;5122342;27;20066;-61
2021/11/29 03:48:44;;;;;;;2.67;0.90;;;2.00;99.90;;;;;;5147306;27;20099;-61
2021/11/29 03:51:10;;;;;;;2.35;1.00;;;2.00;99.90;;;;;;5149105;27;20042;-61
2021/11/29 03:53:35;;;;;;;5.70;1.25;;;2.00;99.90;;;;;;5123099;27;20453;-61
2021/11/29 03:56:01;;;;;;;2.63;1.10;;;2.00;99.90;;;;;;5122176;27;20051;-61
2021/11/29 03:58:27;;;;;;;4.00;1.50;;;1.90;99.90;;;;;;5144245;27;20035;-62
2021/11/29 04:00:53;;;;;;;6.88;1.52;;;1.90;99.90;;;;;;5139940;27;20043;-61
2021/11/29 04:03:19;;;;;;;1.40;0.90;;;1.80;99.90;;;;;;5117229;27;20109;-62
2021/11/29 04:05:45;;;;;;;4.28;1.00;;;1.80;99.90;;;;;;5130359;27;20047;-61
2021/11/29 04:08:11;;;;;;;3.63;0.90;;;1.70;99.90;;;;;;5148158;27;20035;-61
2021/11/29 04:10:37;;;;;;;6.00;1.10;;;1.70;99.90;;;;;;5147373;27;20069;-61
2021/11/29 04:13:02;;;;;;;3.30;1.05;;;1.70;99.90;;;;;;5147315;27;20397;-61
2021/11/29 04:15:29;;;;;;;4.57;1.05;;;1.80;99.90;;;;;;5122446;27;20138;-61
2021/11/29 04:17:55;;;;;;;4.07;0.95;;;1.80;99.90;;;;;;5144029;27;20039;-61
2021/11/29 04:20:21;;;;;;;4.65;1.08;;;1.80;99.90;;;;;;5119548;27;20075;-61
2021/11/29 04:22:48;;;;;;;4.53;1.27;;;1.90;99.90;;;;;;5124401;27;20052;-61
2021/11/29 04:25:18;;;;;;;6.65;1.15;;;1.90;99.90;;;;;;5139093;27;20050;-61
2021/11/29 04:27:45;;;;;;;3.60;1.00;;;1.90;99.90;;;;;;5123632;28;20118;-61
2021/11/29 04:30:16;;;;;;;2.65;1.00;;;1.90;99.90;;;;;;5110720;28;20052;-61
2021/11/29 04:32:43;;;;;;;5.60;0.90;;;2.00;99.90;;;;;;5116600;27;20043;-61
2021/11/29 04:35:09;;;;;;;2.15;0.88;;;1.90;99.90;;;;;;5141137;27;20082;-61
2021/11/29 04:37:36;;;;;;;4.35;1.10;;;2.00;99.90;;;;;;5147764;27;20058;-61
2021/11/29 04:40:04;;;;;;;1.17;0.90;;;1.90;99.90;;;;;;5139995;27;20047;-61
2021/11/29 04:42:30;;;;;;;2.80;0.98;;;1.90;99.90;;;;;;5147477;27;20098;-61
2021/11/29 04:44:56;;;;;;;3.22;0.90;;;2.00;99.90;;;;;;5146913;27;20069;-61
2021/11/29 04:47:22;;;;;;;3.70;0.90;;;2.00;99.90;;;;;;5146357;27;20043;-61
2021/11/29 04:49:48;;;;;;;2.25;0.88;;;2.00;99.90;;;;;;5146934;27;20096;-61
2021/11/29 04:52:14;;;;;;;5.72;1.00;;;2.00;99.90;;;;;;5144249;27;20067;-61
2021/11/29 04:54:40;;;;;;;3.63;0.88;;;2.00;99.90;;;;;;5137582;27;20078;-61
2021/11/29 04:57:06;;;;;;;4.32;1.02;;;1.90;99.90;;;;;;5145710;27;20039;-61
2021/11/29 04:59:31;;;;;;;3.55;0.93;;;1.80;99.90;;;;;;5146962;27;20186;-61
2021/11/29 05:01:57;;;;;;;2.80;1.13;;;1.80;99.90;;;;;;5146552;27;20047;-61
2021/11/29 05:04:23;;;;;;;2.25;0.80;;;1.80;99.90;;;;;;5127654;27;20035;-61
2021/11/29 05:06:49;;;;;;;3.03;0.90;;;1.80;99.90;;;;;;5138739;27;20039;-61
2021/11/29 05:09:14;;;;;;;3.83;1.10;;;1.80;99.90;;;;;;5125509;27;20068;-61
2021/11/29 05:11:40;;;;;;;2.97;0.90;;;1.80;99.90;;;;;;5145619;27;20332;-61
2021/11/29 05:14:06;;;;;;;4.32;0.75;;;1.80;99.90;;;;;;5120742;27;20067;-61
2021/11/29 05:16:34;;;;;;;7.60;1.08;;;1.80;99.90;;;;;;5142541;27;22934;-61
2021/11/29 05:19:00;;;;;;;4.70;0.90;;;1.90;99.90;;;;;;5120140;28;20055;-61
2021/11/29 05:21:26;;;;;;;2.65;0.90;;;2.10;99.90;;;;;;5124693;27;20035;-61
2021/11/29 05:23:51;;;;;;;4.47;0.90;;;2.10;99.90;;;;;;5125649;28;20598;-61
2021/11/29 05:26:22;;;;;;;4.13;0.90;;;2.10;99.90;;;;;;5142774;27;20054;-61
2021/11/29 05:28:48;;;;;;;;;;;2.10;99.90;;;;;;5146630;27;20545;-61
2021/11/29 05:31:14;;;;;;;3.38;0.98;;;2.10;99.90;;;;;;5143050;27;19941;-61
2021/11/29 05:33:40;;;;;;;2.90;0.90;;;2.20;99.90;;;;;;5146399;27;20062;-61
2021/11/29 05:36:05;;;;;;;4.80;1.45;;;2.20;99.90;;;;;;5146248;27;20595;-61
2021/11/29 05:38:32;;;;;;;1.92;1.20;;;2.20;99.90;;;;;;5113187;27;20080;-61
2021/11/29 05:40:57;;;;;;;5.25;1.30;;;2.30;99.90;;;;;;5115952;27;20066;-61
2021/11/29 05:43:23;;;;;;;4.05;1.10;;;2.40;99.90;;;;;;5115457;28;20047;-61
2021/11/29 05:45:49;;;;;;;2.20;1.20;;;2.40;99.90;;;;;;5143324;27;20114;-61
2021/11/29 05:48:15;;;;;;;2.88;1.42;;;2.40;99.90;;;;;;5134039;27;20042;-61
2021/11/29 05:50:41;;;;;;;7.05;1.60;;;2.40;99.90;;;;;;5117265;27;20055;-61
2021/11/29 05:53:06;;;;;;;2.15;1.50;;;2.40;99.90;;;;;;5083038;27;20546;-62
2021/11/29 05:55:32;;;;;;;4.40;1.85;;;2.40;99.90;;;;;;5101997;27;20051;-61
2021/11/29 05:57:58;;;;;;;5.45;1.80;;;2.40;99.90;;;;;;5107478;27;20105;-61
2021/11/29 06:00:24;;;;;;;4.40;1.77;;;2.30;99.90;;;;;;5132935;27;20051;-61
2021/11/29 06:02:50;;;;;;;3.30;2.00;;;2.20;99.90;;;;;;5108235;27;20046;-62
2021/11/29 06:05:16;;;;;;;4.47;1.52;;;2.20;99.90;;;;;;5120554;27;20031;-61
2021/11/29 06:07:44;;;;;;;3.35;1.60;;;2.20;99.90;;;;;;5117085;27;20043;-62
2021/11/29 06:10:11;;;;;;;5.35;1.48;;;2.10;99.90;;;;;;5087898;27;20068;-62
2021/11/29 06:12:38;;;;;;;2.83;1.20;;;2.10;99.90;;;;;;5116085;27;20071;-62
2021/11/29 06:15:04;;;;;;;2.50;1.30;;;2.10;99.90;;;;;;5124590;27;20111;-61
2021/11/29 06:17:30;;;;;;;2.95;1.45;;;2.00;99.90;;;;;;5116433;27;20705;-62
2021/11/29 06:19:56;;;;;;;7.47;2.55;;;2.00;99.90;;;;;;5125902;27;20438;-61
2021/11/29 06:22:22;;;;;;;5.30;1.73;;;1.90;99.90;;;;;;5116680;27;20110;-62
2021/11/29 06:24:48;;;;;;;2.88;1.40;;;1.90;99.90;;;;;;5110320;27;20078;-62
2021/11/29 06:27:14;;;;;;;3.72;1.75;;;2.00;99.90;;;;;;5134873;27;20127;-63
2021/11/29 06:29:40;;;;;;;7.65;1.90;;;1.90;99.90;;;;;;5084616;28;20048;-62
2021/11/29 06:32:06;;;;;;;5.95;2.10;;;1.90;99.90;;;;;;5112413;27;20564;-62
2021/11/29 06:34:31;;;;;;;3.83;2.03;;;2.00;99.90;;;;;;5122885;27;20047;-61
2021/11/29 06:36:59;;;;;;;3.58;1.95;;;1.90;99.90;;;;;;5136598;27;20047;-62
2021/11/29 06:39:25;;;;;;;5.75;2.10;;;1.80;99.90;;;;;;5098681;27;20066;-62
2021/11/29 06:41:53;;;;;;;4.65;2.20;;;1.80;99.90;;;;;;5117065;27;20541;-62
2021/11/29 06:44:19;;;;;;;5.68;2.42;;;1.80;99.90;;;;;;5108836;28;20066;-62
2021/11/29 06:46:44;;;;;;;4.57;2.10;;;1.70;99.90;;;;;;5134377;27;20072;-62
2021/11/29 06:49:10;;;;;;;3.65;2.22;;;1.70;99.90;;;;;;5103438;28;20122;-62
2021/11/29 06:51:36;;;;;;;5.28;2.30;;;1.70;99.90;;;;;;5118712;28;20043;-62
2021/11/29 06:54:02;;;;;;;5.10;2.25;;;1.70;99.90;;;;;;5097199;28;20332;-62
2021/11/29 06:56:28;;;;;;;4.00;2.20;;;1.70;99.90;;;;;;5113891;28;20079;-61
2021/11/29 06:58:54;;;;;;;4.68;2.03;;;1.70;99.90;;;;;;5100576;28;20044;-61
2021/11/29 07:01:20;;;;;;;4.40;2.55;;;1.70;99.90;;;;;;5122262;28;20086;-61
2021/11/29 07:03:49;;;;;;;11.45;3.10;;;1.80;99.90;;;;;;5097002;28;20043;-61
2021/11/29 07:06:15;;;;;;;4.05;2.25;;;1.90;99.90;;;;;;5107028;28;20095;-61
2021/11/29 07:08:41;;;;;;;5.53;2.50;;;1.90;99.90;;;;;;5096631;28;20053;-61
2021/11/29 07:11:06;;;;;;;4.28;2.85;;;1.90;99.90;;;;;;5114599;28;20043;-61
2021/11/29 07:13:32;;;;;;;9.15;2.72;;;1.90;99.90;;;;;;5109983;27;20047;-61
2021/11/29 07:15:58;;;;;;;5.55;2.97;;;1.90;99.90;;;;;;5109720;28;20060;-61
2021/11/29 07:18:24;;;;;;;8.15;3.20;;;1.90;99.90;;;;;;5104942;28;20056;-61
2021/11/29 07:20:49;;;;;;;4.93;2.50;;;1.90;99.90;;;;;;5116984;28;20135;-61
2021/11/29 07:23:15;;;;;;;6.20;2.80;;;1.80;99.90;;;;;;5121901;27;20059;-61
2021/11/29 07:25:41;;;;;;;8.38;2.90;;;1.80;99.90;;;;;;5119441;28;20564;-61
2021/11/29 07:28:07;;;;;;;7.45;3.13;;;1.70;99.90;;;;;;5101715;28;20515;-62
2021/11/29 07:30:33;;;;;;;9.25;2.83;;;1.70;99.90;;;;;;5113977;28;20051;-61
2021/11/29 07:32:59;;;;;;;5.22;2.47;;;1.60;99.90;;;;;;5120156;28;20054;-61
2021/11/29 07:35:28;;;;;;;5.45;2.60;;;1.50;99.90;;;;;;5109621;27;20048;-61
2021/11/29 07:37:54;;;;;;;7.30;3.30;;;1.40;99.90;;;;;;5104042;28;20131;-61
2021/11/29 07:40:21;;;;;;;5.18;2.75;;;1.30;99.90;;;;;;5098986;27;20053;-61
2021/11/29 07:42:47;;;;;;;5.63;3.25;;;1.20;99.90;;;;;;5101696;28;20437;-61
2021/11/29 07:45:13;;;;;;;5.07;2.83;;;1.20;99.90;;;;;;5125129;27;20043;-61
2021/11/29 07:47:40;;;;;;;4.38;2.83;;;1.20;99.90;;;;;;5124706;27;20038;-61
2021/11/29 07:50:09;;;;;;;6.20;2.97;;;1.10;99.90;;;;;;5110621;27;20325;-65
2021/11/29 07:52:35;;;;;;;8.32;3.80;;;1.00;99.90;;;;;;5122246;27;20438;-62
2021/11/29 07:55:03;;;;;;;5.57;3.47;;;1.00;99.90;;;;;;5108200;27;20055;-62
2021/11/29 07:57:29;;;;;;;10.60;3.92;;;1.00;99.90;;;;;;5122360;27;20047;-63
2021/11/29 07:59:54;;;;;;;7.22;3.95;;;1.10;99.90;;;;;;5124178;27;20107;-62
2021/11/29 08:02:21;;;;;;;4.97;3.10;;;1.10;99.90;;;;;;5115914;27;20069;-63
2021/11/29 08:04:47;;;;;;;10.15;3.80;;;1.00;99.90;;;;;;5112437;27;20051;-62
2021/11/29 08:07:16;;;;;;;5.80;3.40;;;1.00;99.90;;;;;;5115764;27;20039;-63
2021/11/29 08:09:41;;;;;;;10.43;3.50;;;1.00;99.90;;;;;;5112867;27;20324;-62
2021/11/29 08:12:07;;;;;;;7.30;3.70;;;1.00;99.90;;;;;;5116277;27;20043;-62
2021/11/29 08:14:33;;;;;;;7.22;3.53;;;1.00;99.90;;;;;;5105481;27;20138;-61
2021/11/29 08:16:59;;;;;;;9.05;3.70;;;0.90;99.90;;;;;;5111744;27;20044;-61
2021/11/29 08:19:24;;;;;;;6.97;3.28;;;0.90;99.90;;;;;;5108597;27;20472;-61
2021/11/29 08:21:50;;;;;;;7.95;3.95;;;0.80;99.90;;;;;;5115802;27;20055;-62
2021/11/29 08:24:16;;;;;;;6.80;3.30;;;0.80;99.90;;;;;;5100888;28;20039;-61
2021/11/29 08:26:42;;;;;;;5.65;3.42;;;0.90;99.90;;;;;;5115816;27;20043;-64
2021/11/29 08:29:08;;;;;;;10.65;4.10;;;0.80;99.90;;;;;;5109450;27;20051;-61
2021/11/29 08:31:33;;;;;;;12.23;4.53;;;0.90;99.90;;;;;;5139013;27;20043;-61
2021/11/29 08:33:59;;;;;;;9.70;4.30;;;1.00;99.90;;;;;;5124530;27;20407;-61
2021/11/29 08:36:26;;;;;;;8.30;4.07;;;1.00;99.90;;;;;;5125776;27;20058;-61
2021/11/29 08:38:51;;;;;;;7.32;3.85;;;0.90;99.90;;;;;;5107561;27;20060;-62
2021/11/29 08:41:18;;;;;;;8.90;4.35;;;1.00;99.90;;;;;;5138340;27;20050;-62
2021/11/29 08:43:44;;;;;;;10.63;4.55;;;1.00;99.90;;;;;;5130102;27;20383;-61
2021/11/29 08:46:10;;;;;;;8.95;4.25;;;1.00;99.90;;;;;;5108644;28;20183;-61
2021/11/29 08:48:35;;;;;;;8.88;4.38;;;1.00;99.90;;;;;;5089697;28;20760;-61
2021/11/29 08:51:02;;;;;;;8.93;4.38;;;1.00;99.90;;;;;;5133646;27;20057;-61
2021/11/29 08:53:28;;;;;;;12.02;4.60;;;1.00;99.90;;;;;;5102804;27;20286;-64
2021/11/29 08:55:54;;;;;;;8.93;4.55;;;1.10;99.90;;;;;;5136708;27;23054;-61
2021/11/29 08:58:21;;;;;;;8.50;4.43;;;1.10;99.90;;;;;;5132610;27;20047;-61
2021/11/29 09:00:50;;;;;;;10.65;5.15;;;1.20;99.90;;;;;;5108644;27;20043;-61
2021/11/29 09:03:16;;;;;;;10.57;5.82;;;1.20;99.90;;;;;;5106602;27;20499;-61
2021/11/29 09:05:45;;;;;;;12.40;5.40;;;1.30;99.90;;;;;;5098335;27;20162;-61
2021/11/29 09:08:12;;;;;;;12.60;5.13;;;1.40;99.90;;;;;;5115691;27;20058;-61
2021/11/29 09:10:38;;;;;;;9.23;5.05;;;1.50;99.90;;;;;;5109048;27;20035;-61
2021/11/29 09:13:04;;;;;;;15.55;6.20;;;1.50;99.90;;;;;;5113692;27;20055;-61
2021/11/29 09:15:30;;;;;;;16.05;6.20;;;1.60;99.90;;;;;;5102553;27;20063;-61
2021/11/29 09:17:56;;;;;;;14.63;6.53;;;1.60;99.90;;;;;;5113097;27;20070;-61
2021/11/29 09:20:24;;;;;;;12.38;5.53;;;1.70;99.90;;;;;;5108300;27;20055;-61
2021/11/29 09:22:52;;;;;;;12.13;6.00;;;1.80;99.90;;;;;;5120400;27;20039;-61
2021/11/29 09:25:20;;;;;;;14.35;5.40;;;1.90;99.90;;;;;;5124401;27;20043;-61
2021/11/29 09:27:46;;;;;;;12.25;6.20;;;1.90;99.90;;;;;;5105685;27;20039;-61
2021/11/29 09:30:14;;;;;;;12.32;5.47;;;2.00;99.90;;;;;;5117498;27;20062;-61
2021/11/29 09:32:40;;;;;;;13.65;6.40;;;2.10;99.90;;;;;;5131124;27;20440;-61
2021/11/29 09:35:09;;;;;;;15.57;6.55;;;2.20;99.90;;;;;;5115246;27;20047;-61
2021/11/29 09:37:38;;;;;;;16.65;7.28;;;2.20;99.90;;;;;;5111378;27;20043;-61
2021/11/29 09:40:06;;;;;;;14.65;6.88;;;2.30;99.90;;;;;;5096052;27;20134;-61
2021/11/29 09:42:33;;;;;;;13.40;6.50;;;2.40;99.90;;;;;;5134603;27;20103;-61
2021/11/29 09:44:59;;;;;;;12.45;6.20;;;2.50;99.90;;;;;;5107558;27;20055;-61
2021/11/29 09:47:25;;;;;;;16.50;6.95;;;2.60;99.90;;;;;;5111568;27;20047;-62
2021/11/29 09:49:55;;;;;;;12.25;7.03;;;2.60;99.90;;;;;;5097285;27;20043;-61
2021/11/29 09:52:22;;;;;;;;;;;2.70;99.90;;;;;;5137435;27;20080;-61
2021/11/29 09:54:49;;;;;;;13.50;6.43;;;2.80;99.90;;;;;;5103222;27;19930;-61
2021/11/29 09:57:16;;;;;;;11.40;6.30;;;2.90;99.90;;;;;;5138688;27;20087;-61
2021/11/29 09:59:42;;;;;;;15.00;7.30;;;3.00;99.90;;;;;;5126374;27;20051;-61
2021/11/29 10:02:12;;;;;;;13.43;7.20;;;3.10;99.90;;;;;;5130371;27;20102;-61
2021/11/29 10:04:41;;;;;;;14.27;7.25;;;3.20;99.90;;;;;;5122493;27;20059;-61
2021/11/29 10:07:06;;;;;;;13.00;7.32;;;3.30;99.90;;;;;;5134104;27;20047;-61
2021/11/29 10:09:39;;;;;;;12.32;6.82;;;3.50;99.90;;;;;;5114058;27;20413;-61
2021/11/29 10:12:10;;;;;;;12.05;6.22;;;3.60;99.90;;;;;;5119149;27;20110;-61
2021/11/29 10:14:38;;;;;;;10.50;6.68;;;3.80;99.90;;;;;;5124820;27;20146;-61
2021/11/29 10:17:04;;;;;;;11.10;6.57;;;3.90;99.90;;;;;;5119710;27;20058;-61
2021/11/29 10:19:36;;;;;;;11.43;6.72;;;4.10;99.90;;;;;;5121892;27;20358;-61
2021/11/29 10:22:18;;;;;;;11.32;7.22;;;4.10;99.90;;;;;;5122898;27;20043;-61
2021/11/29 10:24:46;;;;;;;10.85;6.07;;;4.20;99.90;;;;;;5105587;27;20157;-61
2021/11/29 10:27:12;;;;;;;10.10;5.93;;;4.20;99.90;;;;;;5102832;28;20077;-61
2021/11/29 10:29:47;;;;;;;10.80;5.95;;;4.10;99.90;;;;;;5128134;27;20043;-61
2021/11/29 10:32:32;;;;;;;8.60;5.60;;;4.20;99.90;;;;;;5093621;27;20055;-61
2021/11/29 10:34:58;;;;;;;8.68;5.55;;;4.10;99.90;;;;;;5108115;27;20054;-61
2021/11/29 10:37:29;;;;;;;11.40;6.57;;;4.10;99.90;;;;;;5135682;27;20038;-62
2021/11/29 10:39:55;;;;;;;9.23;5.82;;;4.10;99.90;;;;;;5115397;27;20115;-61
2021/11/29 10:42:26;;;;;;;9.98;6.22;;;4.10;99.90;;;;;;5114803;27;20043;-61
2021/11/29 10:44:54;;;;;;;9.15;5.90;;;4.10;99.90;;;;;;5094745;27;20150;-61
2021/11/29 10:47:21;;;;;;;9.63;6.50;;;4.10;99.90;;;;;;5114996;28;20077;-61
2021/11/29 10:49:53;;;;;;;10.00;6.32;;;4.20;99.90;;;;;;5092851;28;20043;-61
2021/11/29 10:52:22;;;;;;;9.35;5.75;;;4.10;99.90;;;;;;5108641;28;20048;-61
2021/11/29 10:54:48;;;;;;;11.68;6.18;;;4.10;99.90;;;;;;5119835;27;20281;-61
2021/11/29 10:57:16;;;;;;;10.25;6.30;;;4.00;99.90;;;;;;5103066;28;20043;-61
2021/11/29 10:59:45;;;;;;;10.98;5.88;;;4.00;99.90;;;;;;5125525;28;20051;-61
2021/11/29 11:02:14;;;;;;;11.63;6.40;;;4.00;99.90;;;;;;5128685;28;20093;-61
2021/11/29 11:04:43;;;;;;;9.90;7.03;;;4.00;99.90;;;;;;5112637;28;20471;-61
2021/11/29 11:07:14;;;;;;;11.57;6.47;;;4.00;99.90;;;;;;5135344;28;20154;-61
2021/11/29 11:09:40;;;;;;;;;;;4.00;99.90;;;;;;5128071;28;20047;-61
2021/11/29 11:12:14;;;;;;;10.05;6.03;;;3.90;99.90;;;;;;5136683;28;19926;-61
2021/11/29 11:14:47;;;;;;;11.98;6.72;;;3.90;99.90;;;;;;5117028;28;20052;-61
2021/11/29 11:17:14;;;;;;;10.43;6.35;;;3.90;99.90;;;;;;5116821;28;20989;-62
2021/11/29 11:19:41;;;;;;;10.90;6.40;;;4.00;99.90;;;;;;5108983;28;20044;-61
2021/11/29 11:22:11;;;;;;;10.18;6.20;;;4.00;99.90;;;;;;5117161;28;20043;-61
2021/11/29 11:24:45;;;;;;;11.37;6.40;;;4.10;99.90;;;;;;5121326;28;20083;-61
2021/11/29 11:27:12;;;;;;;10.98;6.30;;;4.10;99.90;;;;;;5118298;28;20043;-61
2021/11/29 11:29:48;;;;;;;13.40;6.90;;;4.20;99.90;;;;;;5123495;28;20047;-61
2021/11/29 11:32:33;;;;;;;11.63;6.40;;;4.20;99.90;;;;;;5117506;28;20183;-62
2021/11/29 11:35:08;;;;;;;10.63;6.72;;;4.20;99.90;;;;;;5101417;28;20048;-61
2021/11/29 11:37:38;;;;;;;11.63;6.47;;;4.20;99.90;;;;;;5106849;28;20064;-62
2021/11/29 11:40:10;;;;;;;10.10;6.47;;;4.30;99.90;;;;;;5113897;28;20047;-62
2021/11/29 11:42:37;;;;;;;10.68;6.35;;;4.40;99.90;;;;;;5136030;28;20054;-61
2021/11/29 11:45:06;;;;;;;8.77;5.80;;;4.50;99.90;;;;;;5125165;28;20107;-61
2021/11/29 11:47:33;;;;;;;8.45;5.63;;;4.50;99.90;;;;;;5119563;28;20048;-61
2021/11/29 11:49:59;;;;;;;7.85;5.28;;;4.60;99.90;;;;;;5077614;28;20043;-63
2021/11/29 11:52:25;;;;;;;8.13;5.80;;;4.60;99.90;;;;;;5117919;28;20039;-64
2021/11/29 11:54:56;;;;;;;8.48;5.25;;;4.60;99.90;;;;;;5106536;28;20071;-65
2021/11/29 11:57:24;;;;;;;6.07;3.60;;;4.60;99.90;;;;;;5111826;28;20069;-63
2021/11/29 11:59:54;;;;;;;5.90;3.67;;;4.50;99.90;;;;;;5101609;28;20047;-63
2021/11/29 12:02:38;;;;;;;5.25;3.58;;;4.50;99.90;;;;;;5110113;28;20047;-64
2021/11/29 12:05:25;;;;;;;6.97;4.63;;;4.60;99.90;;;;;;5108822;27;20055;-63
2021/11/29 12:07:52;;;;;;;5.90;4.57;;;4.80;99.90;;;;;;5115739;28;20069;-63
2021/11/29 12:10:33;;;;;;;7.30;5.45;;;4.90;99.90;;;;;;5105702;27;20449;-63
2021/11/29 12:13:16;;;;;;;8.07;5.22;;;5.10;99.90;;;;;;5121498;27;20063;-63
2021/11/29 12:15:50;;;;;;;8.27;5.82;;;5.10;99.90;;;;;;5110873;27;20050;-62
2021/11/29 12:18:38;;;;;;;9.18;6.03;;;5.10;99.90;;;;;;5137035;27;20042;-62
2021/11/29 12:21:17;;;;;;;8.77;5.68;;;5.00;99.90;;;;;;5106799;27;20058;-62
2021/11/29 12:24:04;;;;;;;9.02;6.07;;;4.90;99.90;;;;;;5136936;27;20039;-62
2021/11/29 12:26:45;;;;;;;8.82;5.95;;;4.70;99.90;;;;;;5109866;27;20047;-62
2021/11/29 12:29:20;;;;;;;8.18;5.78;;;4.70;99.90;;;;;;5135346;27;20158;-62
2021/11/29 12:32:01;;;;;;;11.18;7.28;;;4.60;99.90;;;;;;5109974;27;20051;-62
2021/11/29 12:34:51;;;;;;;8.88;5.65;;;4.60;99.90;;;;;;5101483;27;20077;-64
2021/11/29 12:37:23;;;;;;;10.50;6.22;;;4.70;99.90;;;;;;5106401;27;20446;-62
2021/11/29 12:39:56;;;;;;;10.48;6.20;;;4.80;99.90;;;;;;5112659;27;20051;-63
2021/11/29 12:42:28;;;;;;;8.32;5.75;;;4.80;99.90;;;;;;5120104;27;20050;-62
2021/11/29 12:44:59;;;;;;;8.48;5.95;;;4.80;99.90;;;;;;5110507;27;20143;-63
2021/11/29 12:47:31;;;;;;;10.25;6.30;;;4.80;99.90;;;;;;5137780;27;20038;-62
2021/11/29 12:50:03;;;;;;;8.25;5.55;;;4.80;99.90;;;;;;5099081;27;20050;-63
2021/11/29 12:52:35;;;;;;;8.65;5.00;;;4.80;99.90;;;;;;5119778;27;20122;-63
2021/11/29 12:55:03;;;;;;;9.05;5.47;;;4.80;99.90;;;;;;5100431;28;20044;-63
2021/11/29 12:57:34;;;;;;;8.75;5.18;;;4.80;99.90;;;;;;5118436;27;20054;-63